Time;durP1;ratioP1;P1;durP2;ratioP2;P2;SDS_P1;SDS_P2;PMS_P1;PMS_P2;Temp;Humidity;BMP_temperature;BMP_pressure;BME280_temperature;BME280_humidity;BME280_pressure;Samples;Min_cycle;Max_cycle;Signal;HPM_P1;HPM_P2
2022/05/16 00:00:47;;;;;;;;;2.00;2.00;19.90;99.90;;;;;;5019634;28;8861;-65
2022/05/16 00:03:21;;;;;;;;;1.00;1.00;19.80;99.90;;;;;;5020086;28;8976;-64
2022/05/16 00:05:52;;;;;;;;;0.00;0.00;19.90;99.90;;;;;;5019309;28;8875;-65
2022/05/16 00:08:24;;;;;;;;;0.50;0.50;20.00;99.90;;;;;;5018761;28;8861;-65
2022/05/16 00:10:58;;;;;;;;;0.25;0.25;20.00;99.90;;;;;;5017095;28;8852;-65
2022/05/16 00:13:28;;;;;;;;;0.00;0.00;20.10;99.90;;;;;;5020872;28;8830;-65
2022/05/16 00:16:00;;;;;;;;;1.00;1.00;20.10;99.90;;;;;;5015545;28;8854;-64
2022/05/16 00:18:32;;;;;;;;;0.00;0.00;20.20;99.90;;;;;;4999662;28;9575;-65
2022/05/16 00:21:04;;;;;;;;;0.00;0.00;20.20;99.90;;;;;;5014634;28;8858;-65
2022/05/16 00:23:35;;;;;;;;;1.50;0.00;20.30;99.90;;;;;;5013182;28;8875;-65
2022/05/16 00:26:06;;;;;;;;;0.25;0.25;20.30;99.90;;;;;;5016960;28;8893;-65
2022/05/16 00:28:37;;;;;;;;;0.00;0.00;20.30;99.90;;;;;;5018288;28;8897;-70
2022/05/16 00:31:09;;;;;;;;;0.00;0.00;20.30;99.90;;;;;;5019775;28;9020;-64
2022/05/16 00:33:41;;;;;;;;;0.00;0.00;20.30;99.90;;;;;;5021547;28;9767;-65
2022/05/16 00:36:13;;;;;;;;;0.00;0.00;20.30;99.90;;;;;;5019169;28;9555;-64
2022/05/16 00:38:44;;;;;;;;;0.00;0.00;20.20;99.90;;;;;;5021829;28;8861;-64
2022/05/16 00:41:16;;;;;;;;;0.00;0.00;20.10;99.90;;;;;;5026167;28;8974;-66
2022/05/16 00:43:58;;;;;;;;;0.00;0.00;20.20;99.90;;;;;;5015647;28;8919;-66
2022/05/16 00:46:33;;;;;;;;;0.00;0.00;20.20;99.90;;;;;;5013380;28;9592;-65
2022/05/16 00:49:11;;;;;;;;;0.50;0.50;20.10;99.90;;;;;;5022971;28;8831;-64
2022/05/16 00:51:47;;;;;;;;;0.25;0.25;20.00;99.90;;;;;;5016117;28;8841;-64
2022/05/16 00:54:26;;;;;;;;;3.00;0.00;19.90;99.90;;;;;;5018849;28;8853;-65
2022/05/16 00:57:07;;;;;;;;;1.00;1.00;19.90;99.90;;;;;;5014906;28;8821;-65
2022/05/16 00:59:54;;;;;;;;;0.00;0.00;19.70;99.90;;;;;;5026045;28;8857;-65
2022/05/16 01:05:18;;;;;;;;;1.00;1.00;19.70;99.90;;;;;;5012361;28;8865;-64
2022/05/16 01:07:49;;;;;;;;;0.00;0.00;19.60;99.90;;;;;;5015811;28;9254;-66
2022/05/16 01:10:22;;;;;;;;;1.00;1.00;19.60;99.90;;;;;;5033096;28;9066;-65
2022/05/16 01:12:54;;;;;;;;;0.00;0.00;19.40;99.90;;;;;;5016755;28;9219;-65
2022/05/16 01:15:32;;;;;;;;;1.00;0.00;19.40;99.90;;;;;;5033752;28;9841;-66
2022/05/16 01:18:05;;;;;;;;;1.00;1.00;19.20;99.90;;;;;;5021510;28;9089;-64
2022/05/16 01:21:03;;;;;;;;;0.00;0.00;19.20;99.90;;;;;;5016433;28;9332;-65
2022/05/16 01:23:40;;;;;;;;;0.67;0.67;19.20;99.90;;;;;;5028250;28;9182;-64
2022/05/16 01:26:17;;;;;;;;;0.67;0.67;19.10;99.90;;;;;;5019519;28;9370;-66
2022/05/16 01:28:47;;;;;;;;;0.67;0.67;19.10;99.90;;;;;;5018450;28;9197;-65
2022/05/16 01:31:18;;;;;;;;;0.00;0.00;19.10;99.90;;;;;;5022591;28;9234;-65
2022/05/16 01:33:52;;;;;;;;;0.00;0.00;19.00;99.90;;;;;;5020572;28;9324;-65
2022/05/16 01:36:22;;;;;;;;;2.00;1.00;18.90;99.90;;;;;;5018114;28;9309;-66
2022/05/16 01:38:54;;;;;;;;;1.00;1.00;18.90;99.90;;;;;;5001538;28;9487;-65
2022/05/16 01:41:27;;;;;;;;;1.00;1.00;18.90;99.90;;;;;;5036298;28;9469;-65
2022/05/16 01:44:00;;;;;;;;;1.33;1.33;18.90;99.90;;;;;;5017963;28;9335;-64
2022/05/16 01:46:35;;;;;;;;;0.00;0.00;18.80;99.90;;;;;;5016826;28;9554;-66
2022/05/16 01:49:08;;;;;;;;;0.00;0.00;18.80;99.90;;;;;;5018342;28;9583;-65
2022/05/16 01:51:40;;;;;;;;;0.00;0.00;18.80;99.90;;;;;;4999515;28;9485;-65
2022/05/16 01:54:11;;;;;;;;;0.00;0.00;18.70;99.90;;;;;;5018474;28;9546;-65
2022/05/16 01:56:44;;;;;;;;;1.50;0.00;18.70;99.90;;;;;;5015916;28;9550;-65
2022/05/16 01:59:14;;;;;;;;;0.33;0.33;18.70;99.90;;;;;;5017039;28;9624;-65
2022/05/16 02:01:45;;;;;;;;;1.00;1.00;18.60;99.90;;;;;;5019086;28;9461;-65
2022/05/16 02:04:15;;;;;;;;;1.00;1.00;18.60;99.90;;;;;;5023297;28;9607;-65
2022/05/16 02:06:46;;;;;;;;;0.75;0.75;18.50;99.90;;;;;;5016096;28;9739;-65
2022/05/16 02:09:17;;;;;;;;;1.25;1.25;18.50;99.90;;;;;;5020627;28;10018;-65
2022/05/16 02:11:49;;;;;;;;;1.50;0.25;18.50;99.90;;;;;;5016131;28;10020;-65
2022/05/16 02:14:22;;;;;;;;;0.00;0.00;18.50;99.90;;;;;;5018034;28;10152;-65
2022/05/16 02:16:53;;;;;;;;;1.00;1.00;18.40;99.90;;;;;;5014100;28;10323;-64
2022/05/16 02:19:26;;;;;;;;;1.25;1.25;18.30;99.90;;;;;;5015767;28;10590;-65
2022/05/16 02:24:47;;;;;;;;;5.25;5.25;18.30;99.90;;;;;;5012641;28;10479;-64
2022/05/16 02:27:17;;;;;;;;;7.50;7.50;18.30;99.90;;;;;;5013832;28;11001;-64
2022/05/16 02:29:50;;;;;;;;;8.25;8.25;18.30;99.90;;;;;;5016183;28;11382;-63
2022/05/16 02:32:22;;;;;;;;;11.25;11.25;18.20;99.90;;;;;;5016321;28;10688;-64
2022/05/16 02:34:55;;;;;;;;;11.50;11.50;18.20;99.90;;;;;;5012502;28;11990;-64
2022/05/16 02:37:26;;;;;;;;;5.00;5.00;18.20;99.90;;;;;;5013863;28;11272;-64
2022/05/16 02:39:57;;;;;;;;;2.00;2.00;18.10;99.90;;;;;;5020443;28;10636;-65
2022/05/16 02:42:27;;;;;;;;;1.50;1.50;18.10;99.90;;;;;;5011577;28;10317;-65
2022/05/16 02:44:58;;;;;;;;;3.25;3.25;18.10;99.90;;;;;;5020265;28;10329;-64
2022/05/16 02:47:29;;;;;;;;;4.50;4.50;18.10;99.90;;;;;;5003913;28;10200;-64
2022/05/16 02:50:00;;;;;;;;;6.00;6.00;18.00;99.90;;;;;;5017350;28;10784;-64
2022/05/16 02:52:33;;;;;;;;;6.50;3.75;18.00;99.90;;;;;;5015843;28;11588;-63
2022/05/16 02:55:06;;;;;;;;;1.00;1.00;18.00;99.90;;;;;;5019638;28;10804;-64
2022/05/16 02:57:36;;;;;;;;;0.50;0.50;17.90;99.90;;;;;;5020280;28;10227;-64
2022/05/16 03:00:12;;;;;;;;;1.00;1.00;17.80;99.90;;;;;;5012413;28;9930;-64
2022/05/16 03:02:43;;;;;;;;;1.25;1.25;17.80;99.90;;;;;;5018374;28;9951;-64
2022/05/16 03:05:13;;;;;;;;;1.00;1.00;17.80;99.90;;;;;;5019487;28;9907;-65
2022/05/16 03:07:44;;;;;;;;;2.00;2.00;17.80;99.90;;;;;;5018869;28;10053;-65
2022/05/16 03:10:16;;;;;;;;;1.25;1.00;17.80;99.90;;;;;;5023607;28;10552;-67
2022/05/16 03:12:49;;;;;;;;;1.00;1.00;17.70;99.90;;;;;;5021930;28;9955;-64
2022/05/16 03:15:20;;;;;;;;;1.00;0.00;17.70;99.90;;;;;;5019859;28;10096;-64
2022/05/16 03:17:52;;;;;;;;;1.00;1.00;17.70;99.90;;;;;;5020589;28;9740;-63
2022/05/16 03:20:23;;;;;;;;;2.00;2.00;17.70;99.90;;;;;;5016764;28;10257;-64
2022/05/16 03:22:55;;;;;;;;;4.00;2.00;17.60;99.90;;;;;;5018084;28;10106;-63
2022/05/16 03:25:25;;;;;;;;;2.00;2.00;17.60;99.90;;;;;;5014620;28;10031;-64
2022/05/16 03:27:56;;;;;;;;;2.75;2.75;17.60;99.90;;;;;;5023155;28;10130;-64
2022/05/16 03:30:28;;;;;;;;;2.25;2.25;17.60;99.90;;;;;;5017423;28;11287;-63
2022/05/16 03:33:00;;;;;;;;;1.00;1.00;17.50;99.90;;;;;;5016457;28;11133;-62
2022/05/16 03:35:31;;;;;;;;;1.25;1.25;17.50;99.90;;;;;;4986619;28;11430;-63
2022/05/16 03:38:03;;;;;;;;;0.00;0.00;17.50;99.90;;;;;;5018677;28;10482;-67
2022/05/16 03:40:42;;;;;;;;;1.00;1.00;17.40;99.90;;;;;;5018614;28;10025;-66
2022/05/16 03:43:14;;;;;;;;;1.00;1.00;17.40;99.90;;;;;;5021910;28;10327;-66
2022/05/16 03:45:44;;;;;;;;;0.75;0.75;17.40;99.90;;;;;;5018722;28;10298;-66
2022/05/16 03:48:15;;;;;;;;;0.00;0.00;17.30;99.90;;;;;;5019547;28;10256;-63
2022/05/16 03:50:48;;;;;;;;;0.00;0.00;17.30;99.90;;;;;;5017780;28;10380;-64
2022/05/16 03:53:19;;;;;;;;;1.50;1.50;17.30;99.90;;;;;;5017782;28;10452;-66
2022/05/16 03:55:50;;;;;;;;;1.00;1.00;17.30;99.90;;;;;;5023827;28;10450;-64
2022/05/16 03:58:20;;;;;;;;;0.75;0.75;17.30;99.90;;;;;;5018248;28;10582;-63
2022/05/16 04:00:51;;;;;;;;;1.25;1.00;17.20;99.90;;;;;;5022447;28;10443;-65
2022/05/16 04:03:21;;;;;;;;;1.00;1.00;17.20;99.90;;;;;;5019246;28;10711;-63
2022/05/16 04:05:53;;;;;;;;;1.25;1.25;17.20;99.90;;;;;;5005147;28;10741;-63
2022/05/16 04:08:26;;;;;;;;;1.00;1.00;17.10;99.90;;;;;;5022180;28;10950;-64
2022/05/16 04:11:00;;;;;;;;;4.25;4.25;17.20;99.90;;;;;;5021631;28;10501;-64
2022/05/16 04:13:30;;;;;;;;;5.75;4.75;17.20;99.90;;;;;;5006037;28;11018;-64
2022/05/16 04:16:02;;;;;;;;;4.00;4.00;17.20;99.90;;;;;;5003229;28;11471;-64
2022/05/16 04:18:36;;;;;;;;;5.00;5.00;17.20;99.90;;;;;;5017535;28;11147;-64
2022/05/16 04:21:08;;;;;;;;;8.25;8.25;17.20;99.90;;;;;;5015495;28;11235;-63
2022/05/16 04:23:38;;;;;;;;;11.00;11.00;17.20;99.90;;;;;;5019176;28;11460;-64
2022/05/16 04:26:09;;;;;;;;;11.25;9.75;17.10;99.90;;;;;;5017286;28;11485;-64
2022/05/16 04:28:39;;;;;;;;;12.50;12.50;17.10;99.90;;;;;;5015880;28;11517;-64
2022/05/16 04:31:09;;;;;;;;;17.50;17.50;17.10;99.90;;;;;;5018481;28;11649;-64
2022/05/16 04:33:41;;;;;;;;;12.00;12.00;17.10;99.90;;;;;;5021708;28;12178;-63
2022/05/16 04:36:11;;;;;;;;;16.25;16.25;17.10;99.90;;;;;;5001100;28;11484;-64
2022/05/16 04:38:42;;;;;;;;;20.50;20.50;17.00;99.90;;;;;;5002761;28;11537;-64
2022/05/16 04:44:01;;;;;;;;;30.25;27.75;17.00;99.90;;;;;;5017217;28;11485;-64
2022/05/16 04:46:32;;;;;;;;;25.25;24.25;16.90;99.90;;;;;;5015933;28;11505;-63
2022/05/16 04:49:02;;;;;;;;;26.00;26.00;16.90;99.90;;;;;;5030491;28;12195;-64
2022/05/16 04:51:33;;;;;;;;;24.50;24.50;16.90;99.90;;;;;;5018634;28;11511;-64
2022/05/16 04:54:04;;;;;;;;;26.25;26.00;16.90;99.90;;;;;;5015623;28;12493;-64
2022/05/16 04:56:36;;;;;;;;;27.50;27.50;16.90;99.90;;;;;;5016549;28;12243;-64
2022/05/16 04:59:07;;;;;;;;;25.25;25.25;16.90;99.90;;;;;;5023841;28;11489;-64
2022/05/16 05:01:39;;;;;;;;;20.75;20.75;16.80;99.90;;;;;;5019547;28;11680;-63
2022/05/16 05:04:10;;;;;;;;;23.00;23.00;16.90;99.90;;;;;;5020299;28;11579;-64
2022/05/16 05:06:41;;;;;;;;;24.75;23.00;16.90;99.90;;;;;;5019108;28;11562;-64
2022/05/16 05:09:11;;;;;;;;;25.25;24.00;16.80;99.90;;;;;;5019353;28;11593;-63
2022/05/16 05:14:33;;;;;;;;;23.75;23.75;16.80;99.90;;;;;;5030124;28;11541;-64
2022/05/16 05:17:09;;;;;;;;;23.25;23.25;16.80;99.90;;;;;;5021000;28;11603;-64
2022/05/16 05:19:40;;;;;;;;;25.25;25.25;16.80;99.90;;;;;;5016035;28;11787;-64
2022/05/16 05:22:13;;;;;;;;;25.25;23.75;16.80;99.90;;;;;;5019844;28;11506;-64
2022/05/16 05:24:45;;;;;;;;;21.50;21.50;16.70;99.90;;;;;;5020192;28;12552;-63
2022/05/16 05:27:16;;;;;;;;;23.50;23.50;16.70;99.90;;;;;;5013555;28;11704;-64
2022/05/16 05:29:48;;;;;;;;;17.50;17.50;16.70;99.90;;;;;;5015108;28;11557;-65
2022/05/16 05:32:18;;;;;;;;;9.00;8.75;16.70;99.90;;;;;;5020526;28;11494;-64
2022/05/16 05:34:50;;;;;;;;;8.00;8.00;16.60;99.90;;;;;;5018061;28;11432;-64
2022/05/16 05:37:20;;;;;;;;;6.50;4.75;16.50;99.90;;;;;;5015909;28;11148;-64
2022/05/16 05:39:52;;;;;;;;;2.00;2.00;16.50;99.90;;;;;;5021569;28;11157;-65
2022/05/16 05:42:23;;;;;;;;;0.50;0.50;16.50;99.90;;;;;;5009545;28;10878;-65
2022/05/16 05:44:54;;;;;;;;;2.00;2.00;16.50;99.90;;;;;;5018369;28;10659;-65
2022/05/16 05:47:25;;;;;;;;;1.50;1.50;16.50;99.90;;;;;;5001681;28;10573;-64
2022/05/16 05:49:56;;;;;;;;;1.00;1.00;16.40;99.90;;;;;;5023109;28;10658;-64
2022/05/16 05:52:28;;;;;;;;;1.00;1.00;16.40;99.90;;;;;;5017963;28;10418;-64
2022/05/16 05:54:58;;;;;;;;;1.75;1.75;16.40;99.90;;;;;;5020102;28;10291;-64
2022/05/16 05:57:29;;;;;;;;;3.00;3.00;16.40;99.90;;;;;;5019788;28;10387;-63
2022/05/16 06:00:04;;;;;;;;;2.00;2.00;16.30;99.90;;;;;;5004752;28;10578;-64
2022/05/16 06:02:37;;;;;;;;;3.00;3.00;16.30;99.90;;;;;;5024612;28;10280;-64
2022/05/16 06:05:16;;;;;;;;;1.75;1.75;16.30;99.90;;;;;;5016488;28;10524;-64
2022/05/16 06:07:47;;;;;;;;;2.00;2.00;16.30;99.90;;;;;;5020458;28;10410;-64
2022/05/16 06:10:18;;;;;;;;;2.75;2.00;16.30;99.90;;;;;;5016804;28;10549;-64
2022/05/16 06:12:52;;;;;;;;;3.00;3.00;16.30;99.90;;;;;;5019220;28;10690;-63
2022/05/16 06:15:23;;;;;;;;;2.25;2.25;16.30;99.90;;;;;;5019404;28;10517;-64
2022/05/16 06:17:53;;;;;;;;;2.25;2.25;16.30;99.90;;;;;;5020844;28;11330;-63
2022/05/16 06:20:24;;;;;;;;;2.50;2.50;16.30;99.90;;;;;;5020213;28;10801;-64
2022/05/16 06:22:55;;;;;;;;;1.50;1.50;16.30;99.90;;;;;;5018117;28;10584;-63
2022/05/16 06:25:34;;;;;;;;;0.75;0.75;16.30;99.90;;;;;;5016361;28;10603;-65
2022/05/16 06:28:16;;;;;;;;;2.25;2.25;16.30;99.90;;;;;;5020727;28;10554;-65
2022/05/16 06:30:50;;;;;;;;;2.00;2.00;16.20;99.90;;;;;;5014976;28;10562;-64
2022/05/16 06:33:29;;;;;;;;;3.75;3.75;16.20;99.90;;;;;;5007942;28;10490;-65
2022/05/16 06:36:00;;;;;;;;;3.75;2.25;16.20;99.90;;;;;;5022876;28;10402;-65
2022/05/16 06:38:35;;;;;;;;;2.00;2.00;16.10;99.90;;;;;;5018566;28;10572;-64
2022/05/16 06:41:05;;;;;;;;;3.50;3.50;16.10;99.90;;;;;;5020121;28;10614;-64
2022/05/16 06:43:38;;;;;;;;;2.25;2.25;16.10;99.90;;;;;;5021097;28;10476;-64
2022/05/16 06:46:08;;;;;;;;;2.75;2.75;16.00;99.90;;;;;;5020614;28;10347;-64
2022/05/16 06:48:39;;;;;;;;;2.00;2.00;16.00;99.90;;;;;;5021070;28;10450;-64
2022/05/16 06:51:10;;;;;;;;;1.25;1.25;16.00;99.90;;;;;;5022408;28;10536;-64
2022/05/16 06:53:42;;;;;;;;;2.00;2.00;16.00;99.90;;;;;;5020518;28;10532;-64
2022/05/16 06:56:13;;;;;;;;;2.50;2.50;16.00;99.90;;;;;;5015760;28;10462;-64
2022/05/16 06:58:46;;;;;;;;;2.00;2.00;15.90;99.90;;;;;;5021346;28;10522;-63
2022/05/16 07:01:16;;;;;;;;;3.00;3.00;15.90;99.90;;;;;;5003255;28;10475;-64
2022/05/16 07:03:47;;;;;;;;;2.25;2.25;15.90;99.90;;;;;;5018346;28;10724;-64
2022/05/16 07:06:19;;;;;;;;;4.00;4.00;15.90;99.90;;;;;;5020231;28;10580;-65
2022/05/16 07:08:49;;;;;;;;;2.00;2.00;15.90;99.90;;;;;;5028828;28;10786;-65
2022/05/16 07:11:23;;;;;;;;;3.00;3.00;15.90;99.90;;;;;;5019477;28;10684;-64
2022/05/16 07:13:53;;;;;;;;;3.00;3.00;15.90;99.90;;;;;;5019046;28;10514;-65
2022/05/16 07:16:23;;;;;;;;;3.00;3.00;15.90;99.90;;;;;;5027222;28;10506;-64
2022/05/16 07:18:55;;;;;;;;;4.00;2.50;15.90;99.90;;;;;;5020299;28;10607;-64
2022/05/16 07:21:27;;;;;;;;;3.25;3.25;15.80;99.90;;;;;;5021099;28;11244;-64
2022/05/16 07:24:00;;;;;;;;;3.25;3.25;15.80;99.90;;;;;;5018762;28;10868;-64
2022/05/16 07:29:20;;;;;;;;;3.75;3.75;15.80;99.90;;;;;;5020314;28;10720;-64
2022/05/16 07:31:51;;;;;;;;;4.00;4.00;15.80;99.90;;;;;;5023759;28;10774;-63
2022/05/16 07:34:22;;;;;;;;;2.25;2.25;15.80;99.90;;;;;;5020382;28;10820;-64
2022/05/16 07:36:53;;;;;;;;;3.00;3.00;15.80;99.90;;;;;;5022233;28;10605;-65
2022/05/16 07:39:27;;;;;;;;;3.00;3.00;15.90;99.90;;;;;;5022308;28;10713;-64
2022/05/16 07:41:59;;;;;;;;;3.50;2.25;15.80;99.90;;;;;;5015248;28;11571;-64
2022/05/16 07:44:32;;;;;;;;;1.25;1.25;15.90;99.90;;;;;;5019165;28;11468;-64
2022/05/16 07:47:04;;;;;;;;;2.00;2.00;15.90;99.90;;;;;;5020306;28;10692;-64
2022/05/16 07:49:35;;;;;;;;;1.50;1.50;15.90;99.90;;;;;;5017369;28;10703;-64
2022/05/16 07:52:05;;;;;;;;;2.00;2.00;15.90;99.90;;;;;;5021637;28;10587;-64
2022/05/16 07:54:37;;;;;;;;;1.00;1.00;15.90;99.90;;;;;;5015847;28;10821;-64
2022/05/16 07:57:08;;;;;;;;;1.00;1.00;15.80;99.90;;;;;;5019949;28;10610;-64
2022/05/16 07:59:39;;;;;;;;;0.25;0.25;15.90;99.90;;;;;;5020070;28;10631;-64
2022/05/16 08:02:13;;;;;;;;;1.00;1.00;15.80;99.90;;;;;;5025216;28;10365;-64
2022/05/16 08:04:44;;;;;;;;;1.00;1.00;15.90;99.90;;;;;;5019827;28;10502;-63
2022/05/16 08:07:16;;;;;;;;;1.00;1.00;15.80;99.90;;;;;;5020022;28;10528;-64
2022/05/16 08:12:40;;;;;;;;;0.75;0.75;15.80;99.90;;;;;;5023943;28;10201;-64
2022/05/16 08:15:15;;;;;;;;;1.00;1.00;15.80;99.90;;;;;;5024656;28;10599;-64
2022/05/16 08:17:47;;;;;;;;;1.00;1.00;15.80;99.90;;;;;;5028700;28;10524;-63
2022/05/16 08:20:18;;;;;;;;;1.00;1.00;15.80;99.90;;;;;;5019260;28;10625;-63
2022/05/16 08:22:48;;;;;;;;;0.00;0.00;15.80;99.90;;;;;;5023949;28;10536;-64
2022/05/16 08:25:20;;;;;;;;;1.00;1.00;15.70;99.90;;;;;;5017148;28;10552;-63
2022/05/16 08:27:50;;;;;;;;;0.00;0.00;15.70;99.90;;;;;;5018302;28;10407;-62
2022/05/16 08:30:23;;;;;;;;;0.00;0.00;15.70;99.90;;;;;;5016525;28;10448;-63
2022/05/16 08:32:55;;;;;;;;;0.00;0.00;15.70;99.90;;;;;;5015977;28;10624;-64
2022/05/16 08:35:26;;;;;;;;;0.00;0.00;15.80;99.90;;;;;;5017642;28;10534;-64
2022/05/16 08:41:02;;;;;;;;;0.25;0.25;15.80;99.90;;;;;;5014937;28;10443;-63
2022/05/16 08:44:07;;;;;;;;;0.00;0.00;15.70;99.90;;;;;;5017271;28;11404;-64
2022/05/16 08:47:09;;;;;;;;;1.00;1.00;15.70;99.90;;;;;;5021059;28;10574;-64
2022/05/16 08:50:19;;;;;;;;;0.00;0.00;15.70;99.90;;;;;;5017529;28;10678;-63
2022/05/16 08:53:05;;;;;;;;;0.00;0.00;15.80;99.90;;;;;;4996890;28;10475;-64
2022/05/16 08:55:44;;;;;;;;;2.00;0.00;15.70;99.90;;;;;;5012279;28;10542;-64
2022/05/16 08:58:50;;;;;;;;;0.00;0.00;15.70;99.90;;;;;;5021284;28;10511;-63
2022/05/16 09:01:54;;;;;;;;;2.75;1.00;15.70;99.90;;;;;;5014437;28;10366;-64
2022/05/16 09:04:31;;;;;;;;;0.00;0.00;15.60;99.90;;;;;;5022540;28;10302;-63
2022/05/16 09:07:34;;;;;;;;;0.00;0.00;15.60;99.90;;;;;;5019536;28;10358;-63
2022/05/16 09:10:25;;;;;;;;;0.00;0.00;15.60;99.90;;;;;;5036144;28;10470;-64
2022/05/16 09:13:29;;;;;;;;;0.00;0.00;15.60;99.90;;;;;;5015453;28;10556;-63
2022/05/16 09:16:15;;;;;;;;;0.00;0.00;15.60;99.90;;;;;;5026322;28;10549;-64
2022/05/16 09:18:46;;;;;;;;;0.00;0.00;15.60;99.90;;;;;;5017522;28;10688;-64
2022/05/16 09:21:44;;;;;;;;;0.00;0.00;15.60;99.90;;;;;;5013535;28;10552;-65
2022/05/16 09:24:46;;;;;;;;;0.00;0.00;15.60;99.90;;;;;;5019257;28;11052;-64
2022/05/16 09:30:25;;;;;;;;;0.00;0.00;15.60;99.90;;;;;;5015343;28;10656;-64
2022/05/16 09:33:09;;;;;;;;;0.00;0.00;15.50;99.90;;;;;;5010045;28;10729;-62
2022/05/16 09:36:07;;;;;;;;;0.00;0.00;15.50;99.90;;;;;;5014557;28;11882;-63
2022/05/16 09:38:43;;;;;;;;;0.00;0.00;15.50;99.90;;;;;;5017474;28;10388;-63
2022/05/16 09:41:36;;;;;;;;;0.00;0.00;15.50;99.90;;;;;;5017839;28;10483;-63
2022/05/16 09:44:10;;;;;;;;;0.00;0.00;15.50;99.90;;;;;;5029173;28;10468;-62
2022/05/16 09:46:45;;;;;;;;;0.00;0.00;15.50;99.90;;;;;;5016477;28;10640;-62
2022/05/16 09:49:27;;;;;;;;;0.50;0.00;15.50;99.90;;;;;;5019524;28;10660;-63
2022/05/16 09:52:00;;;;;;;;;0.00;0.00;15.50;99.90;;;;;;5016127;28;10536;-63
2022/05/16 09:54:37;;;;;;;;;0.00;0.00;15.50;99.90;;;;;;5012556;28;10444;-64
2022/05/16 09:57:19;;;;;;;;;0.00;0.00;15.50;99.90;;;;;;5018316;28;10467;-65
2022/05/16 09:59:53;;;;;;;;;0.00;0.00;15.50;99.90;;;;;;5017027;28;11051;-64
2022/05/16 10:02:40;;;;;;;;;1.00;1.00;15.50;99.90;;;;;;5023357;28;10609;-64
2022/05/16 10:05:43;;;;;;;;;0.00;0.00;15.50;99.90;;;;;;5015659;28;10364;-64
2022/05/16 10:08:17;;;;;;;;;0.00;0.00;15.50;99.90;;;;;;5010381;28;11159;-64
2022/05/16 10:10:49;;;;;;;;;0.00;0.00;15.50;99.90;;;;;;5021246;28;10460;-62
2022/05/16 10:13:20;;;;;;;;;0.00;0.00;15.40;99.90;;;;;;5016247;28;10403;-64
2022/05/16 10:15:55;;;;;;;;;0.00;0.00;15.40;99.90;;;;;;5016035;28;11153;-63
2022/05/16 10:18:29;;;;;;;;;0.00;0.00;15.50;99.90;;;;;;5016342;28;10590;-64
2022/05/16 10:21:07;;;;;;;;;0.50;0.50;15.50;99.90;;;;;;5015039;28;11172;-64
2022/05/16 10:23:42;;;;;;;;;1.50;0.00;15.50;99.90;;;;;;5015331;28;10596;-64
2022/05/16 10:26:28;;;;;;;;;1.00;1.00;15.40;99.90;;;;;;5017576;28;10488;-64
2022/05/16 10:29:12;;;;;;;;;1.00;1.00;15.40;99.90;;;;;;5015927;28;10457;-63
2022/05/16 10:34:44;;;;;;;;;1.00;1.00;15.40;99.90;;;;;;5017887;28;10440;-64
2022/05/16 10:37:16;;;;;;;;;1.00;1.00;15.40;99.90;;;;;;5014962;28;10444;-64
2022/05/16 10:40:05;;;;;;;;;1.25;1.25;15.40;99.90;;;;;;5015454;28;10537;-64
2022/05/16 10:43:12;;;;;;;;;1.00;1.00;15.40;99.90;;;;;;5007535;28;10685;-63
2022/05/16 10:45:50;;;;;;;;;1.00;1.00;15.30;99.90;;;;;;5015137;28;10648;-64
2022/05/16 10:49:16;;;;;;;;;2.00;2.00;15.40;99.90;;;;;;5015358;28;10766;-63
2022/05/16 10:52:00;;;;;;;;;2.00;1.00;15.40;99.90;;;;;;5005686;28;11298;-64
2022/05/16 10:54:32;;;;;;;;;1.00;1.00;15.30;99.90;;;;;;5009528;28;10653;-63
2022/05/16 10:57:21;;;;;;;;;0.00;0.00;15.30;99.90;;;;;;5011292;28;10558;-62
2022/05/16 11:00:02;;;;;;;;;0.50;0.50;15.30;99.90;;;;;;5016297;28;10524;-62
2022/05/16 11:02:57;;;;;;;;;1.00;1.00;15.30;99.90;;;;;;5016255;28;10695;-61
2022/05/16 11:05:39;;;;;;;;;0.00;0.00;15.30;99.90;;;;;;5015141;28;10849;-64
2022/05/16 11:08:29;;;;;;;;;0.25;0.25;15.30;99.90;;;;;;5018044;28;10921;-62
2022/05/16 11:11:03;;;;;;;;;0.00;0.00;15.20;99.90;;;;;;5007466;28;10792;-64
2022/05/16 11:14:02;;;;;;;;;3.00;1.00;15.20;99.90;;;;;;5017420;28;10819;-63
2022/05/16 11:16:40;;;;;;;;;0.25;0.25;15.20;99.90;;;;;;5020635;28;10644;-66
2022/05/16 11:19:41;;;;;;;;;0.75;0.75;15.20;99.90;;;;;;5017401;28;10652;-63
2022/05/16 11:22:36;;;;;;;;;1.00;1.00;15.30;99.90;;;;;;5035888;28;10786;-64
2022/05/16 11:25:16;;;;;;;;;1.00;1.00;15.20;99.90;;;;;;5002500;28;10820;-63
2022/05/16 11:28:13;;;;;;;;;1.00;1.00;15.20;99.90;;;;;;5017299;28;10775;-63
2022/05/16 11:30:56;;;;;;;;;1.00;1.00;15.20;99.90;;;;;;5019690;28;10743;-64
2022/05/16 11:33:43;;;;;;;;;3.75;2.00;15.20;99.90;;;;;;5018404;28;10972;-64
2022/05/16 11:36:39;;;;;;;;;1.00;1.00;15.20;99.90;;;;;;5002429;28;11004;-63
2022/05/16 11:39:28;;;;;;;;;1.75;1.75;15.20;99.90;;;;;;5017534;28;11649;-63
2022/05/16 11:42:52;;;;;;;;;0.75;0.75;15.20;99.90;;;;;;5015348;28;10784;-64
2022/05/16 11:45:59;;;;;;;;;1.00;1.00;15.20;99.90;;;;;;5011318;28;10974;-63
2022/05/16 11:48:38;;;;;;;;;0.75;0.75;15.20;99.90;;;;;;5021341;28;10746;-64
2022/05/16 11:52:14;;;;;;;;;0.75;0.75;15.20;99.90;;;;;;5012379;28;10675;-63
2022/05/16 11:54:58;;;;;;;;;1.00;1.00;15.10;99.90;;;;;;4995642;28;10842;-64
2022/05/16 12:03:08;;;;;;;;;1.00;1.00;15.20;99.90;;;;;;5020341;28;10940;-63
2022/05/16 12:05:43;;;;;;;;;1.00;1.00;15.10;99.90;;;;;;5025131;28;10740;-63
2022/05/16 12:08:28;;;;;;;;;1.00;1.00;15.10;99.90;;;;;;5018888;28;10685;-63
2022/05/16 12:11:16;;;;;;;;;3.00;1.00;15.10;99.90;;;;;;5015202;28;10547;-64
2022/05/16 12:14:11;;;;;;;;;1.00;1.00;15.10;99.90;;;;;;5015958;28;10568;-62
2022/05/16 12:16:59;;;;;;;;;0.75;0.75;15.10;99.90;;;;;;5011622;28;10669;-63
2022/05/16 12:19:37;;;;;;;;;1.00;1.00;15.10;99.90;;;;;;5016928;28;10943;-64
2022/05/16 12:22:43;;;;;;;;;1.25;1.25;15.10;99.90;;;;;;4999421;28;10840;-62
2022/05/16 12:25:26;;;;;;;;;0.50;0.50;15.10;99.90;;;;;;5017459;28;10746;-63
2022/05/16 12:28:15;;;;;;;;;1.00;1.00;15.10;99.90;;;;;;5016037;28;10745;-62
2022/05/16 12:30:57;;;;;;;;;1.00;1.00;15.10;99.90;;;;;;5015811;28;10673;-63
2022/05/16 12:33:44;;;;;;;;;1.75;1.75;15.10;99.90;;;;;;5016928;28;10745;-63
2022/05/16 12:36:17;;;;;;;;;1.00;1.00;15.10;99.90;;;;;;5016750;28;10873;-63
2022/05/16 12:39:03;;;;;;;;;0.00;0.00;15.10;99.90;;;;;;5010808;28;11453;-63
2022/05/16 12:42:00;;;;;;;;;1.00;1.00;15.10;99.90;;;;;;5019127;28;10652;-62
2022/05/16 12:44:47;;;;;;;;;1.00;1.00;15.10;99.90;;;;;;5016335;28;10526;-63
2022/05/16 12:47:26;;;;;;;;;0.25;0.00;15.00;99.90;;;;;;4999688;28;10602;-62
2022/05/16 12:50:24;;;;;;;;;1.75;1.75;15.00;99.90;;;;;;5018016;28;10507;-62
2022/05/16 12:53:18;;;;;;;;;1.00;1.00;15.00;99.90;;;;;;5023756;28;10457;-62
2022/05/16 12:56:10;;;;;;;;;0.00;0.00;15.10;99.90;;;;;;5013629;28;10610;-63
2022/05/16 12:59:17;;;;;;;;;1.50;1.00;15.00;99.90;;;;;;5017453;28;10687;-63
2022/05/16 13:02:10;;;;;;;;;1.00;1.00;15.00;99.90;;;;;;5019942;28;10772;-62
2022/05/16 13:04:58;;;;;;;;;1.00;1.00;15.10;99.90;;;;;;5021928;28;10619;-62
2022/05/16 13:07:50;;;;;;;;;0.25;0.25;15.00;99.90;;;;;;5026257;28;10825;-62
2022/05/16 13:10:34;;;;;;;;;0.00;0.00;15.00;99.90;;;;;;5010246;28;10551;-63
2022/05/16 13:13:11;;;;;;;;;0.00;0.00;15.00;99.90;;;;;;5014656;28;10433;-63
2022/05/16 13:16:13;;;;;;;;;0.00;0.00;14.90;99.90;;;;;;5018805;28;10535;-62
2022/05/16 13:18:53;;;;;;;;;1.00;1.00;15.00;99.90;;;;;;5017581;28;10451;-64
2022/05/16 13:21:38;;;;;;;;;1.00;1.00;15.00;99.90;;;;;;5020328;28;10864;-63
2022/05/16 13:24:11;;;;;;;;;0.50;0.50;15.00;99.90;;;;;;5014706;28;10770;-63
2022/05/16 13:29:56;;;;;;;;;1.00;1.00;15.00;99.90;;;;;;5006615;28;11544;-63
2022/05/16 13:32:29;;;;;;;;;1.00;1.00;15.00;99.90;;;;;;5017231;28;11016;-63
2022/05/16 13:35:12;;;;;;;;;1.25;1.25;15.00;99.90;;;;;;5020095;28;11616;-63
2022/05/16 13:37:45;;;;;;;;;1.00;1.00;15.00;99.90;;;;;;4997980;28;10969;-63
2022/05/16 13:40:42;;;;;;;;;0.50;0.00;14.90;99.90;;;;;;5017588;28;10733;-63
2022/05/16 13:43:26;;;;;;;;;0.50;0.50;15.00;99.90;;;;;;4996181;28;10676;-63
2022/05/16 13:46:01;;;;;;;;;0.00;0.00;15.00;99.90;;;;;;5013060;28;10872;-63
2022/05/16 13:48:33;;;;;;;;;0.75;0.75;15.00;99.90;;;;;;5015573;28;10758;-63
2022/05/16 13:51:05;;;;;;;;;0.75;0.75;14.90;99.90;;;;;;5015983;28;11501;-63
2022/05/16 13:53:36;;;;;;;;;0.75;0.75;15.00;99.90;;;;;;5013496;28;10455;-63
2022/05/16 13:56:07;;;;;;;;;1.50;1.50;15.00;99.90;;;;;;5014027;28;11463;-64
2022/05/16 13:58:38;;;;;;;;;0.00;0.00;14.90;99.90;;;;;;5024215;28;10718;-64
2022/05/16 14:01:23;;;;;;;;;0.00;0.00;15.00;99.90;;;;;;5017871;28;10747;-62
2022/05/16 14:03:59;;;;;;;;;0.25;0.25;14.90;99.90;;;;;;5019037;28;10619;-64
2022/05/16 14:06:37;;;;;;;;;0.50;0.00;14.90;99.90;;;;;;5015858;28;10832;-62
2022/05/16 14:09:19;;;;;;;;;0.25;0.25;14.90;99.90;;;;;;5016606;28;10732;-62
2022/05/16 14:11:55;;;;;;;;;0.25;0.25;14.90;99.90;;;;;;5002742;28;11126;-63
2022/05/16 14:14:28;;;;;;;;;0.25;0.25;14.90;99.90;;;;;;5016093;28;10961;-63